createdAt,value
2023-03-24T00:01:22.993Z,17.40
2023-03-24T00:03:52.306Z,17.40
2023-03-24T00:06:22.508Z,17.40
2023-03-24T00:08:50.442Z,17.39
2023-03-24T00:11:19.456Z,17.38
2023-03-24T00:13:50.008Z,17.39
2023-03-24T00:16:19.730Z,17.38
2023-03-24T00:18:52.766Z,17.35
2023-03-24T00:21:23.526Z,17.37
2023-03-24T00:23:58.189Z,17.41
2023-03-24T00:26:26.201Z,17.40
2023-03-24T00:28:54.864Z,17.42
2023-03-24T00:31:24.244Z,17.40
2023-03-24T00:33:52.182Z,17.40
2023-03-24T00:36:23.139Z,17.40
2023-03-24T00:38:51.573Z,17.41
2023-03-24T00:41:20.569Z,17.37
2023-03-24T00:43:50.029Z,17.33
2023-03-24T00:46:27.613Z,17.38
2023-03-24T00:49:05.765Z,17.39
2023-03-24T00:51:40.166Z,17.38
2023-03-24T00:54:12.557Z,17.35
2023-03-24T00:56:41.504Z,17.35
2023-03-24T00:59:10.254Z,17.36
2023-03-24T01:01:41.138Z,17.38
2023-03-24T01:04:10.416Z,17.37
2023-03-24T01:06:39.540Z,17.35
2023-03-24T01:09:07.807Z,17.35
2023-03-24T01:11:41.165Z,17.35
2023-03-24T01:14:11.124Z,17.36
2023-03-24T01:16:39.232Z,17.37
2023-03-24T01:19:09.309Z,17.37
2023-03-24T01:21:38.987Z,17.39
2023-03-24T01:24:06.755Z,17.40
2023-03-24T01:26:34.739Z,17.41
2023-03-24T01:29:02.538Z,17.40
2023-03-24T01:31:30.091Z,17.39
2023-03-24T01:33:57.736Z,17.40
2023-03-24T01:36:25.642Z,17.46
2023-03-24T01:38:53.400Z,17.43
2023-03-24T01:41:21.328Z,17.40
2023-03-24T01:43:48.956Z,17.36
2023-03-24T01:46:23.053Z,17.39
2023-03-24T01:48:59.825Z,17.44
2023-03-24T01:51:41.885Z,17.42
2023-03-24T01:54:40.579Z,17.38
2023-03-24T01:57:20.695Z,17.30
2023-03-24T01:59:53.741Z,17.29
2023-03-24T02:02:54.626Z,17.28
2023-03-24T02:05:29.575Z,17.32
2023-03-24T02:08:16.206Z,17.27
2023-03-24T02:10:45.123Z,17.28
2023-03-24T02:13:13.166Z,17.31
2023-03-24T02:16:19.764Z,17.25
2023-03-24T02:20:05.724Z,17.27
2023-03-24T02:23:04.335Z,17.33
2023-03-24T02:25:49.438Z,17.22
2023-03-24T02:29:22.087Z,17.11
2023-03-24T02:32:24.598Z,17.07
2023-03-24T02:35:26.337Z,17.02
2023-03-24T02:38:21.523Z,17.01
2023-03-24T02:41:19.175Z,17.02
2023-03-24T02:44:22.798Z,17.02
2023-03-24T02:47:07.568Z,17.09
2023-03-24T02:50:01.322Z,17.07
2023-03-24T02:52:53.219Z,17.07
2023-03-24T02:55:36.108Z,17.05
2023-03-24T02:58:12.397Z,17.08
2023-03-24T03:00:59.492Z,17.05
2023-03-24T03:04:14.343Z,17.13
2023-03-24T03:06:49.350Z,17.16
2023-03-24T03:09:21.348Z,17.20
2023-03-24T03:11:53.573Z,17.23
2023-03-24T03:14:48.234Z,17.23
2023-03-24T03:17:30.463Z,17.27
2023-03-24T03:20:07.894Z,17.29
2023-03-24T03:23:07.457Z,17.31
2023-03-24T03:25:42.204Z,17.31
2023-03-24T03:28:11.913Z,17.29
2023-03-24T03:30:47.598Z,17.36
2023-03-24T03:33:27.510Z,17.39
2023-03-24T03:36:07.371Z,17.41
2023-03-24T03:38:58.604Z,17.40
2023-03-24T03:41:26.847Z,17.36
2023-03-24T03:43:55.304Z,17.31
2023-03-24T03:46:23.383Z,17.26
2023-03-24T03:48:51.470Z,17.22
2023-03-24T03:51:19.999Z,17.18
2023-03-24T03:54:01.176Z,17.19
2023-03-24T03:56:33.998Z,17.14
2023-03-24T03:59:44.193Z,17.12
2023-03-24T04:02:52.584Z,17.02
2023-03-24T04:05:33.284Z,17.02
2023-03-24T04:08:51.323Z,17.05
2023-03-24T04:11:46.301Z,17.10
2023-03-24T04:14:51.378Z,17.18
2023-03-24T04:18:16.932Z,17.21
2023-03-24T04:21:33.599Z,17.20
2023-03-24T04:24:51.886Z,17.26
2023-03-24T04:28:01.936Z,17.28
2023-03-24T04:30:46.071Z,17.25
2023-03-24T04:33:52.414Z,17.22
2023-03-24T04:36:31.708Z,17.27
2023-03-24T04:39:38.854Z,17.30
2023-03-24T04:42:26.535Z,17.27
2023-03-24T04:44:57.664Z,17.26
2023-03-24T04:47:56.987Z,17.28
2023-03-24T04:50:58.783Z,17.27
2023-03-24T04:53:29.243Z,17.23
2023-03-24T04:56:28.396Z,17.26
2023-03-24T04:59:04.303Z,17.31
2023-03-24T05:01:32.697Z,17.32
2023-03-24T05:04:37.248Z,17.16
2023-03-24T05:07:21.381Z,17.01
2023-03-24T05:09:52.298Z,17.01
2023-03-24T05:12:19.854Z,16.97
2023-03-24T05:15:07.740Z,16.85
2023-03-24T05:17:36.613Z,16.60
2023-03-24T05:20:12.358Z,16.56
2023-03-24T05:22:43.561Z,16.43
2023-03-24T05:25:11.436Z,16.49
2023-03-24T05:27:39.134Z,16.39
2023-03-24T05:30:20.166Z,16.39
2023-03-24T05:32:49.095Z,16.40
2023-03-24T05:35:16.832Z,16.42
2023-03-24T05:37:44.522Z,16.41
2023-03-24T05:40:12.971Z,16.42
2023-03-24T05:42:51.686Z,16.40
2023-03-24T05:45:20.240Z,16.43
2023-03-24T05:47:48.373Z,16.46
2023-03-24T05:50:19.760Z,16.48
2023-03-24T05:52:47.978Z,16.49
2023-03-24T05:55:36.040Z,16.51
2023-03-24T05:58:15.668Z,16.50
2023-03-24T06:00:49.984Z,16.50
2023-03-24T06:03:34.090Z,16.52
2023-03-24T06:06:08.714Z,16.48
2023-03-24T06:08:38.367Z,16.44
2023-03-24T06:11:06.656Z,16.42
2023-03-24T06:13:43.956Z,16.46
2023-03-24T06:16:11.583Z,16.49
2023-03-24T06:18:53.025Z,16.53
2023-03-24T06:21:38.952Z,16.52
2023-03-24T06:24:06.958Z,16.53
2023-03-24T06:26:36.394Z,16.58
2023-03-24T06:29:04.698Z,16.61
2023-03-24T06:31:37.440Z,16.65
2023-03-24T06:34:06.366Z,16.67
2023-03-24T06:36:34.688Z,16.68
2023-03-24T06:39:04.364Z,16.66
2023-03-24T06:41:32.389Z,16.68
2023-03-24T06:44:01.931Z,16.69
2023-03-24T06:46:29.627Z,16.71
2023-03-24T06:48:57.297Z,16.72
2023-03-24T06:51:25.203Z,16.73
2023-03-24T06:53:53.078Z,16.76
2023-03-24T06:56:23.341Z,16.79
2023-03-24T06:58:57.829Z,16.83
2023-03-24T07:01:30.146Z,16.85
2023-03-24T07:04:06.287Z,16.84
2023-03-24T07:07:08.577Z,16.87
2023-03-24T07:09:44.638Z,16.86
2023-03-24T07:12:14.656Z,16.89
2023-03-24T07:14:42.867Z,16.87
2023-03-24T07:17:10.675Z,16.86
2023-03-24T07:19:45.714Z,16.88
2023-03-24T07:22:48.211Z,16.90
2023-03-24T07:25:25.596Z,16.86
2023-03-24T07:27:59.848Z,16.83
2023-03-24T07:30:39.391Z,16.79
2023-03-24T07:33:12.467Z,16.72
2023-03-24T07:35:42.925Z,16.69
2023-03-24T07:38:11.734Z,16.66
2023-03-24T07:40:39.681Z,16.61
2023-03-24T07:43:07.254Z,16.53
2023-03-24T07:45:55.206Z,16.53
2023-03-24T07:48:22.822Z,16.53
2023-03-24T07:50:54.052Z,16.52
2023-03-24T07:53:47.664Z,16.52
2023-03-24T07:56:22.513Z,16.55
2023-03-24T07:58:56.926Z,16.53
2023-03-24T08:01:45.023Z,16.45
2023-03-24T08:04:14.919Z,16.46
2023-03-24T08:07:03.005Z,16.48
2023-03-24T08:09:30.650Z,16.45
2023-03-24T08:12:00.575Z,16.47
2023-03-24T08:14:34.616Z,16.52
2023-03-24T08:17:02.335Z,16.51
2023-03-24T08:19:29.944Z,16.56
2023-03-24T08:21:57.474Z,16.61
2023-03-24T08:24:25.495Z,16.63
2023-03-24T08:26:53.545Z,16.69
2023-03-24T08:29:21.165Z,16.76
2023-03-24T08:31:48.737Z,16.78
2023-03-24T08:34:16.245Z,16.79
2023-03-24T08:36:43.767Z,16.79
2023-03-24T08:39:11.292Z,16.83
2023-03-24T08:41:38.854Z,16.87
2023-03-24T08:44:07.475Z,16.90
2023-03-24T08:46:35.401Z,16.89
2023-03-24T08:49:03.997Z,16.90
2023-03-24T08:51:32.544Z,16.89
2023-03-24T08:54:01.430Z,16.89
2023-03-24T08:56:29.258Z,16.88
2023-03-24T08:58:57.907Z,16.96
2023-03-24T09:01:25.629Z,16.99
2023-03-24T09:03:53.376Z,17.09
2023-03-24T09:06:21.422Z,17.17
2023-03-24T09:08:48.938Z,17.26
2023-03-24T09:11:20.932Z,17.22
2023-03-24T09:13:49.345Z,17.28
2023-03-24T09:16:17.879Z,17.27
2023-03-24T09:18:46.333Z,17.24
2023-03-24T09:21:14.259Z,17.14
2023-03-24T09:23:42.492Z,17.15
2023-03-24T09:26:10.127Z,17.13
2023-03-24T09:28:37.822Z,17.15
2023-03-24T09:31:06.447Z,17.26
2023-03-24T09:33:34.934Z,17.25
2023-03-24T09:36:05.021Z,17.42
2023-03-24T09:38:34.910Z,17.53
2023-03-24T09:41:03.587Z,17.51
2023-03-24T09:43:42.387Z,17.65
2023-03-24T09:46:24.716Z,17.69
2023-03-24T09:48:57.441Z,17.77
2023-03-24T09:51:27.904Z,17.88
2023-03-24T09:54:27.260Z,17.80
2023-03-24T09:56:57.235Z,17.92
2023-03-24T09:59:39.625Z,17.98
2023-03-24T10:02:20.140Z,18.15
2023-03-24T10:04:48.892Z,18.28
2023-03-24T10:07:40.307Z,18.46
2023-03-24T10:10:31.992Z,18.58
2023-03-24T10:13:11.890Z,18.60
2023-03-24T10:15:52.064Z,18.55
2023-03-24T10:18:34.131Z,18.55
2023-03-24T10:21:17.878Z,18.58
2023-03-24T10:24:18.608Z,18.57
2023-03-24T10:27:22.848Z,18.73
2023-03-24T10:30:00.914Z,18.84
2023-03-24T10:32:32.867Z,18.82
2023-03-24T10:35:09.397Z,18.80
2023-03-24T10:37:37.769Z,18.76
2023-03-24T10:40:25.037Z,18.83
2023-03-24T10:43:06.423Z,18.86
2023-03-24T10:45:40.870Z,18.87
2023-03-24T10:48:09.491Z,18.80
2023-03-24T10:50:44.143Z,18.72
2023-03-24T10:53:20.941Z,18.82
2023-03-24T10:55:48.970Z,18.80
2023-03-24T10:58:43.294Z,18.83
2023-03-24T11:01:26.108Z,18.92
2023-03-24T11:04:01.188Z,19.01
2023-03-24T11:06:29.130Z,18.86
2023-03-24T11:09:20.010Z,18.98
2023-03-24T11:11:47.844Z,19.06
2023-03-24T11:14:25.416Z,19.15
2023-03-24T11:17:17.418Z,19.25
2023-03-24T11:19:53.569Z,19.15
2023-03-24T11:22:21.774Z,19.30
2023-03-24T11:24:52.659Z,19.42
2023-03-24T11:27:20.426Z,19.49
2023-03-24T11:29:54.594Z,19.37
2023-03-24T11:32:27.877Z,19.15
2023-03-24T11:35:07.759Z,19.02
2023-03-24T11:37:37.329Z,18.99
2023-03-24T11:40:20.631Z,18.91
2023-03-24T11:42:57.381Z,18.91
2023-03-24T11:45:39.189Z,18.89
2023-03-24T11:48:45.508Z,18.86
2023-03-24T11:51:23.503Z,18.87
2023-03-24T11:53:53.765Z,18.80
2023-03-24T11:56:43.090Z,18.58
2023-03-24T11:59:49.435Z,18.52
2023-03-24T12:02:47.969Z,18.50
2023-03-24T12:05:42.250Z,18.28
2023-03-24T12:08:27.099Z,18.36
2023-03-24T12:11:08.112Z,18.50
2023-03-24T12:13:51.523Z,18.58
2023-03-24T12:16:40.862Z,18.70
2023-03-24T12:19:26.561Z,18.72
2023-03-24T12:22:38.548Z,18.64
2023-03-24T12:25:58.794Z,18.55
2023-03-24T12:28:58.378Z,18.50
2023-03-24T12:31:56.890Z,18.60
2023-03-24T12:34:55.967Z,18.32
2023-03-24T12:37:59.764Z,18.35
2023-03-24T12:41:05.789Z,18.42
2023-03-24T12:44:27.566Z,18.43
2023-03-24T12:47:04.173Z,18.38
2023-03-24T12:49:50.586Z,18.39
2023-03-24T12:53:07.790Z,18.36
2023-03-24T12:55:43.484Z,18.46
2023-03-24T12:58:26.804Z,18.14
2023-03-24T13:01:32.866Z,17.57
2023-03-24T13:04:12.823Z,16.89
2023-03-24T13:06:59.179Z,16.43
2023-03-24T13:09:55.691Z,16.23
2023-03-24T13:12:42.140Z,16.06
2023-03-24T13:15:09.895Z,15.89
2023-03-24T13:18:11.633Z,15.68
2023-03-24T13:20:54.070Z,15.34
2023-03-24T13:23:21.890Z,15.38
2023-03-24T13:26:11.740Z,15.24
2023-03-24T13:28:59.080Z,15.41
2023-03-24T13:31:31.426Z,15.33
2023-03-24T13:34:00.375Z,15.40
2023-03-24T13:37:11.811Z,14.93
2023-03-24T13:39:39.723Z,15.06
2023-03-24T13:42:07.734Z,14.98
2023-03-24T13:44:44.309Z,14.76
2023-03-24T13:47:17.704Z,14.74
2023-03-24T13:50:01.273Z,14.88
2023-03-24T13:52:40.074Z,15.10
2023-03-24T13:55:34.504Z,14.72
2023-03-24T13:58:19.136Z,14.54
2023-03-24T14:01:31.521Z,14.57
2023-03-24T14:04:48.434Z,14.69
2023-03-24T14:07:39.621Z,15.00
2023-03-24T14:10:16.505Z,15.12
2023-03-24T14:12:58.891Z,15.10
2023-03-24T14:15:50.569Z,14.93
2023-03-24T14:18:24.797Z,14.68
2023-03-24T14:21:02.509Z,14.68
2023-03-24T14:23:39.140Z,14.60
2023-03-24T14:26:21.268Z,14.67
2023-03-24T14:28:57.160Z,14.68
2023-03-24T14:31:33.750Z,14.69
2023-03-24T14:34:15.435Z,14.52
2023-03-24T14:36:45.339Z,14.66
2023-03-24T14:39:31.756Z,14.78
2023-03-24T14:41:59.736Z,14.90
2023-03-24T14:44:55.261Z,15.02
2023-03-24T14:47:43.398Z,15.26
2023-03-24T14:50:19.665Z,15.29
2023-03-24T14:52:54.894Z,15.43
2023-03-24T14:55:23.216Z,15.46
2023-03-24T14:58:22.229Z,15.56
2023-03-24T15:01:06.926Z,15.62
2023-03-24T15:04:00.791Z,15.70
2023-03-24T15:06:29.121Z,15.74
2023-03-24T15:08:59.887Z,15.78
2023-03-24T15:11:39.519Z,15.85
2023-03-24T15:14:25.300Z,15.88
2023-03-24T15:17:04.146Z,15.85
2023-03-24T15:19:33.894Z,15.93
2023-03-24T15:22:12.793Z,15.97
2023-03-24T15:24:47.268Z,16.12
2023-03-24T15:27:26.512Z,16.02
2023-03-24T15:29:59.129Z,15.95
2023-03-24T15:32:32.098Z,16.09
2023-03-24T15:35:05.570Z,16.19
2023-03-24T15:37:41.087Z,16.31
2023-03-24T15:40:27.462Z,16.40
2023-03-24T15:42:59.122Z,16.49
2023-03-24T15:45:33.156Z,16.56
2023-03-24T15:48:18.326Z,16.69
2023-03-24T15:51:09.186Z,16.81
2023-03-24T15:53:56.158Z,16.65
2023-03-24T15:56:32.103Z,16.81
2023-03-24T15:59:05.485Z,16.83
2023-03-24T16:01:38.329Z,16.89
2023-03-24T16:04:14.184Z,17.16
2023-03-24T16:06:48.649Z,17.23
2023-03-24T16:09:21.784Z,17.31
2023-03-24T16:11:49.359Z,17.40
2023-03-24T16:14:29.689Z,17.45
2023-03-24T16:17:00.769Z,17.34
2023-03-24T16:19:28.601Z,17.08
2023-03-24T16:21:56.491Z,17.03
2023-03-24T16:24:24.154Z,17.09
2023-03-24T16:26:51.726Z,17.11
2023-03-24T16:29:24.064Z,17.09
2023-03-24T16:31:56.754Z,17.04
2023-03-24T16:34:24.628Z,17.03
2023-03-24T16:36:54.936Z,17.04
2023-03-24T16:39:27.877Z,17.04
2023-03-24T16:41:56.667Z,17.10
2023-03-24T16:44:25.096Z,17.08
2023-03-24T16:46:54.838Z,17.11
2023-03-24T16:49:24.006Z,17.08
2023-03-24T16:51:53.768Z,17.02
2023-03-24T16:54:21.829Z,16.98
2023-03-24T16:56:49.758Z,16.97
2023-03-24T16:59:17.428Z,16.89
2023-03-24T17:01:47.249Z,16.80
2023-03-24T17:04:22.279Z,16.76
2023-03-24T17:06:53.423Z,16.70
2023-03-24T17:09:22.147Z,16.62
2023-03-24T17:11:55.885Z,16.53
2023-03-24T17:14:24.065Z,16.49
2023-03-24T17:16:53.423Z,16.49
2023-03-24T17:19:23.681Z,16.39
2023-03-24T17:22:04.751Z,16.35
2023-03-24T17:24:36.718Z,16.26
2023-03-24T17:27:14.398Z,16.20
2023-03-24T17:29:41.908Z,16.14
2023-03-24T17:32:11.975Z,16.10
2023-03-24T17:34:41.681Z,16.03
2023-03-24T17:37:09.194Z,15.98
2023-03-24T17:39:36.925Z,15.94
2023-03-24T17:42:04.665Z,15.89
2023-03-24T17:44:33.686Z,15.87
2023-03-24T17:47:01.290Z,15.77
2023-03-24T17:49:28.845Z,15.76
2023-03-24T17:51:56.357Z,15.72
2023-03-24T17:54:25.426Z,15.70
2023-03-24T17:56:52.985Z,15.64
2023-03-24T17:59:20.578Z,15.60
2023-03-24T18:01:48.155Z,15.55
2023-03-24T18:04:15.927Z,15.52
2023-03-24T18:06:46.152Z,15.44
2023-03-24T18:09:14.007Z,15.39
2023-03-24T18:11:41.534Z,15.33
2023-03-24T18:14:09.214Z,15.26
2023-03-24T18:16:39.150Z,15.24
2023-03-24T18:19:07.053Z,15.20
2023-03-24T18:21:34.589Z,15.18
2023-03-24T18:24:02.290Z,15.16
2023-03-24T18:26:30.605Z,15.15
2023-03-24T18:28:58.193Z,15.14
2023-03-24T18:31:26.086Z,15.10
2023-03-24T18:33:55.178Z,15.07
2023-03-24T18:36:26.226Z,15.02
2023-03-24T18:39:01.829Z,15.01
2023-03-24T18:41:30.412Z,14.96
2023-03-24T18:43:59.514Z,14.88
2023-03-24T18:46:27.505Z,14.86
2023-03-24T18:48:55.474Z,14.86
2023-03-24T18:51:25.525Z,14.76
2023-03-24T18:53:53.452Z,14.74
2023-03-24T18:56:23.273Z,14.75
2023-03-24T18:58:52.352Z,14.74
2023-03-24T19:01:26.102Z,14.73
2023-03-24T19:03:53.808Z,14.66
2023-03-24T19:06:22.102Z,14.68
2023-03-24T19:08:51.984Z,14.63
2023-03-24T19:11:20.076Z,14.55
2023-03-24T19:13:50.480Z,14.48
2023-03-24T19:16:20.384Z,14.48
2023-03-24T19:18:50.327Z,14.46
2023-03-24T19:21:19.591Z,14.38
2023-03-24T19:23:47.139Z,14.41
2023-03-24T19:26:19.992Z,14.36
2023-03-24T19:28:47.528Z,14.37
2023-03-24T19:31:18.476Z,14.32
2023-03-24T19:33:47.337Z,14.29
2023-03-24T19:36:15.844Z,14.22
2023-03-24T19:38:44.102Z,14.25
2023-03-24T19:41:14.292Z,14.16
2023-03-24T19:43:41.890Z,14.06
2023-03-24T19:46:09.479Z,14.06
2023-03-24T19:48:37.331Z,14.07
2023-03-24T19:51:05.343Z,14.11
2023-03-24T19:53:33.023Z,14.10
2023-03-24T19:56:01.280Z,14.07
2023-03-24T19:58:29.112Z,14.09
2023-03-24T20:00:57.011Z,14.04
2023-03-24T20:03:25.800Z,14.03
2023-03-24T20:05:53.453Z,14.03
2023-03-24T20:08:21.596Z,13.99
2023-03-24T20:10:49.138Z,14.03
2023-03-24T20:13:16.656Z,14.04
2023-03-24T20:15:46.638Z,13.98
2023-03-24T20:18:14.354Z,13.97
2023-03-24T20:20:42.485Z,13.97
2023-03-24T20:23:10.505Z,13.96
2023-03-24T20:25:42.584Z,13.96
2023-03-24T20:28:10.417Z,13.99
2023-03-24T20:30:39.879Z,13.93
2023-03-24T20:33:07.758Z,13.97
2023-03-24T20:35:36.491Z,14.01
2023-03-24T20:38:04.316Z,14.03
2023-03-24T20:40:31.890Z,14.05
2023-03-24T20:42:59.901Z,14.02
2023-03-24T20:45:27.483Z,14.00
2023-03-24T20:47:55.376Z,13.98
2023-03-24T20:50:23.020Z,13.96
2023-03-24T20:52:51.114Z,13.88
2023-03-24T20:55:18.685Z,13.89
2023-03-24T20:57:47.427Z,13.86
2023-03-24T21:00:15.563Z,13.86
2023-03-24T21:02:43.751Z,13.85
2023-03-24T21:05:11.685Z,13.86
2023-03-24T21:07:43.494Z,13.78
2023-03-24T21:10:11.419Z,13.81
2023-03-24T21:12:53.053Z,13.81
2023-03-24T21:15:24.896Z,13.79
2023-03-24T21:17:53.349Z,13.70
2023-03-24T21:20:21.598Z,13.66
2023-03-24T21:22:55.549Z,13.64
2023-03-24T21:25:27.450Z,13.59
2023-03-24T21:27:55.938Z,13.64
2023-03-24T21:30:25.929Z,13.66
2023-03-24T21:32:56.633Z,13.73
2023-03-24T21:35:24.951Z,13.77
2023-03-24T21:37:53.664Z,13.77
2023-03-24T21:40:25.363Z,13.72
2023-03-24T21:42:55.771Z,13.67
2023-03-24T21:45:23.874Z,13.65
2023-03-24T21:47:54.819Z,13.61
2023-03-24T21:50:23.217Z,13.59
2023-03-24T21:52:54.729Z,13.59
2023-03-24T21:55:23.252Z,13.56
2023-03-24T21:57:51.868Z,13.55
2023-03-24T22:00:23.916Z,13.52
2023-03-24T22:02:54.070Z,13.55
2023-03-24T22:05:27.867Z,13.55
2023-03-24T22:07:55.886Z,13.61
2023-03-24T22:10:23.404Z,13.63
2023-03-24T22:12:53.176Z,13.47
2023-03-24T22:15:21.729Z,13.56
2023-03-24T22:17:50.281Z,13.65
2023-03-24T22:20:18.193Z,13.67
2023-03-24T22:22:46.234Z,13.64
2023-03-24T22:25:17.944Z,13.69
2023-03-24T22:27:49.444Z,13.70
2023-03-24T22:30:18.998Z,13.71
2023-03-24T22:32:46.571Z,13.73
2023-03-24T22:35:14.648Z,13.69
2023-03-24T22:37:42.574Z,13.75
2023-03-24T22:40:10.459Z,13.69
2023-03-24T22:42:38.395Z,13.74
2023-03-24T22:45:06.786Z,13.71
2023-03-24T22:47:34.384Z,13.65
2023-03-24T22:50:02.323Z,13.58
2023-03-24T22:52:30.465Z,13.62
2023-03-24T22:54:58.028Z,13.59
2023-03-24T22:57:25.582Z,13.32
2023-03-24T22:59:53.179Z,13.27
2023-03-24T23:02:24.399Z,13.12
2023-03-24T23:04:52.183Z,13.03
2023-03-24T23:07:22.665Z,12.92
2023-03-24T23:09:50.336Z,12.94
2023-03-24T23:12:17.929Z,12.85
2023-03-24T23:14:46.357Z,12.74
2023-03-24T23:17:15.725Z,12.76
2023-03-24T23:19:43.507Z,12.71
2023-03-24T23:22:11.195Z,12.63
2023-03-24T23:24:39.281Z,12.50
2023-03-24T23:27:07.074Z,12.42
2023-03-24T23:29:37.668Z,12.43
2023-03-24T23:32:06.214Z,12.40
2023-03-24T23:34:34.806Z,12.48
2023-03-24T23:37:04.955Z,12.47
2023-03-24T23:39:33.951Z,12.38
2023-03-24T23:42:01.448Z,12.38
2023-03-24T23:44:28.985Z,12.30
2023-03-24T23:46:56.686Z,12.25
2023-03-24T23:49:24.312Z,12.14
2023-03-24T23:51:51.875Z,12.23
2023-03-24T23:54:19.531Z,12.18
2023-03-24T23:56:47.150Z,12.25
2023-03-24T23:59:14.858Z,12.12
